createdAt,value
2022-11-15T00:00:49.271Z,8.45
2022-11-15T00:03:17.212Z,8.23
2022-11-15T00:05:43.844Z,8.63
2022-11-15T00:08:10.838Z,8.50
2022-11-15T00:10:37.968Z,7.25
2022-11-15T00:13:08.655Z,8.38
2022-11-15T00:15:39.794Z,7.38
2022-11-15T00:18:07.193Z,8.80
2022-11-15T00:20:36.698Z,7.25
2022-11-15T00:23:05.363Z,6.75
2022-11-15T00:25:32.469Z,6.95
2022-11-15T00:28:00.732Z,5.82
2022-11-15T00:30:28.247Z,6.43
2022-11-15T00:32:55.128Z,6.13
2022-11-15T00:35:21.867Z,5.78
2022-11-15T00:37:48.791Z,5.88
2022-11-15T00:40:15.850Z,5.40
2022-11-15T00:42:42.897Z,5.60
2022-11-15T00:45:10.439Z,5.68
2022-11-15T00:47:37.196Z,5.30
2022-11-15T00:50:04.735Z,5.82
2022-11-15T00:52:31.427Z,5.47
2022-11-15T00:54:58.068Z,6.07
2022-11-15T00:57:24.678Z,5.63
2022-11-15T00:59:51.304Z,5.85
2022-11-15T01:02:17.949Z,6.10
2022-11-15T01:04:44.550Z,5.60
2022-11-15T01:07:11.303Z,5.32
2022-11-15T01:12:18.517Z,5.28
2022-11-15T01:14:45.128Z,6.03
2022-11-15T01:17:11.774Z,4.90
2022-11-15T01:19:38.370Z,5.28
2022-11-15T01:22:05.036Z,5.03
2022-11-15T01:24:31.684Z,5.53
2022-11-15T01:26:58.320Z,5.38
2022-11-15T01:29:25.022Z,5.40
2022-11-15T01:31:51.716Z,5.25
2022-11-15T01:34:18.427Z,6.05
2022-11-15T01:39:29.267Z,4.88
2022-11-15T01:41:56.001Z,5.05
2022-11-15T01:44:42.279Z,5.05
2022-11-15T01:47:22.599Z,5.35
2022-11-15T01:50:00.438Z,5.07
2022-11-15T01:52:29.405Z,5.13
2022-11-15T01:55:04.048Z,5.40
2022-11-15T01:57:31.003Z,5.88
2022-11-15T01:59:58.555Z,5.30
2022-11-15T02:02:25.247Z,5.55
2022-11-15T02:04:51.962Z,6.07
2022-11-15T02:07:20.786Z,5.57
2022-11-15T02:09:47.974Z,5.47
2022-11-15T02:12:18.823Z,5.00
2022-11-15T02:14:53.793Z,4.82
2022-11-15T02:17:34.616Z,4.93
2022-11-15T02:20:27.509Z,5.03
2022-11-15T02:23:18.791Z,4.63
2022-11-15T02:25:51.406Z,4.65
2022-11-15T02:28:39.713Z,4.93
2022-11-15T02:31:10.001Z,4.47
2022-11-15T02:33:57.072Z,4.20
2022-11-15T02:36:50.666Z,4.65
2022-11-15T02:39:28.736Z,4.60
2022-11-15T02:42:30.232Z,5.57
2022-11-15T02:44:58.133Z,5.13
2022-11-15T02:47:25.906Z,4.82
2022-11-15T02:49:54.956Z,4.72
2022-11-15T02:52:23.716Z,4.82
2022-11-15T02:55:00.762Z,4.82
2022-11-15T02:57:54.227Z,4.70
2022-11-15T03:00:21.937Z,4.90
2022-11-15T03:03:20.486Z,4.40
2022-11-15T03:06:24.280Z,4.43
2022-11-15T03:09:12.935Z,4.35
2022-11-15T03:11:47.368Z,4.25
2022-11-15T03:14:22.743Z,4.10
2022-11-15T03:16:49.332Z,4.28
2022-11-15T03:19:35.687Z,4.80
2022-11-15T03:22:05.139Z,4.82
2022-11-15T03:24:33.014Z,4.95
2022-11-15T03:27:15.521Z,4.35
2022-11-15T03:29:45.819Z,5.13
2022-11-15T03:32:19.228Z,4.50
2022-11-15T03:34:49.069Z,4.40
2022-11-15T03:37:16.912Z,4.80
2022-11-15T03:39:43.955Z,4.97
2022-11-15T03:45:14.608Z,4.85
2022-11-15T03:47:49.266Z,5.35
2022-11-15T03:50:20.692Z,5.28
2022-11-15T03:52:48.811Z,5.38
2022-11-15T03:55:18.934Z,5.25
2022-11-15T03:57:45.890Z,5.70
2022-11-15T04:00:13.026Z,4.85
2022-11-15T04:02:39.689Z,5.97
2022-11-15T04:05:06.531Z,5.10
2022-11-15T04:07:33.250Z,5.47
2022-11-15T04:10:03.121Z,5.10
2022-11-15T04:12:43.427Z,5.03
2022-11-15T04:15:12.762Z,5.45
2022-11-15T04:20:31.644Z,4.93
2022-11-15T04:23:17.999Z,5.03
2022-11-15T04:25:45.194Z,5.00
2022-11-15T04:28:12.460Z,4.93
2022-11-15T04:30:39.484Z,5.13
2022-11-15T04:33:06.167Z,6.20
2022-11-15T04:35:33.189Z,5.63
2022-11-15T04:37:59.849Z,5.47
2022-11-15T04:40:26.582Z,5.25
2022-11-15T04:42:53.454Z,6.90
2022-11-15T04:45:20.375Z,5.32
2022-11-15T04:47:47.386Z,5.65
2022-11-15T04:50:15.127Z,6.07
2022-11-15T04:52:51.742Z,5.70
2022-11-15T04:55:18.354Z,5.97
2022-11-15T04:57:45.031Z,4.97
2022-11-15T05:00:14.433Z,5.38
2022-11-15T05:02:59.545Z,5.22
2022-11-15T05:05:26.190Z,5.53
2022-11-15T05:07:52.829Z,4.65
2022-11-15T05:10:19.444Z,5.15
2022-11-15T05:12:47.772Z,5.38
2022-11-15T05:15:14.486Z,5.72
2022-11-15T05:17:41.777Z,5.18
2022-11-15T05:20:08.884Z,5.70
2022-11-15T05:22:35.561Z,5.75
2022-11-15T05:25:02.196Z,6.05
2022-11-15T05:27:28.874Z,5.68
2022-11-15T05:29:55.826Z,6.60
2022-11-15T05:32:22.695Z,5.85
2022-11-15T05:34:50.015Z,6.97
2022-11-15T05:37:17.399Z,7.85
2022-11-15T05:39:44.038Z,7.55
2022-11-15T05:42:17.366Z,8.38
2022-11-15T05:44:47.719Z,10.30
2022-11-15T05:47:18.580Z,12.55
2022-11-15T05:49:45.894Z,9.23
2022-11-15T05:52:14.926Z,38.15
2022-11-15T05:54:41.708Z,7.72
2022-11-15T05:57:08.434Z,8.60
2022-11-15T05:59:35.817Z,18.55
2022-11-15T06:02:02.575Z,13.45
2022-11-15T06:04:29.443Z,8.45
2022-11-15T06:06:56.141Z,7.85
2022-11-15T06:09:22.859Z,6.65
2022-11-15T06:11:49.575Z,7.18
2022-11-15T06:14:16.247Z,14.63
2022-11-15T06:16:42.847Z,9.27
2022-11-15T06:19:09.495Z,6.47
2022-11-15T06:21:36.213Z,6.20
2022-11-15T06:24:03.010Z,5.78
2022-11-15T06:26:29.698Z,5.20
2022-11-15T06:28:56.377Z,6.75
2022-11-15T06:31:23.063Z,5.70
2022-11-15T06:33:50.632Z,8.77
2022-11-15T06:36:18.322Z,7.03
2022-11-15T06:38:45.834Z,6.70
2022-11-15T06:41:13.935Z,6.35
2022-11-15T06:43:41.101Z,7.90
2022-11-15T06:46:08.508Z,5.68
2022-11-15T06:48:35.737Z,6.47
2022-11-15T06:51:04.177Z,5.78
2022-11-15T06:53:31.776Z,7.82
2022-11-15T06:56:02.624Z,7.47
2022-11-15T06:58:29.487Z,6.10
2022-11-15T07:01:03.346Z,6.38
2022-11-15T07:03:30.409Z,6.35
2022-11-15T07:06:02.808Z,7.95
2022-11-15T07:08:33.429Z,6.78
2022-11-15T07:11:04.289Z,7.47
2022-11-15T07:13:35.893Z,7.40
2022-11-15T07:16:07.159Z,7.88
2022-11-15T07:18:40.871Z,7.72
2022-11-15T07:21:09.855Z,7.57
2022-11-15T07:23:40.516Z,6.93
2022-11-15T07:26:07.804Z,7.28
2022-11-15T07:28:35.242Z,7.55
2022-11-15T07:31:09.516Z,6.78
2022-11-15T07:33:36.675Z,7.18
2022-11-15T07:36:04.937Z,6.50
2022-11-15T07:38:31.762Z,7.80
2022-11-15T07:40:59.895Z,7.07
2022-11-15T07:43:28.863Z,8.23
2022-11-15T07:45:59.085Z,7.97
2022-11-15T07:48:35.648Z,8.43
2022-11-15T07:51:14.297Z,7.60
2022-11-15T07:53:41.464Z,6.93
2022-11-15T07:56:08.773Z,7.82
2022-11-15T07:58:35.465Z,8.38
2022-11-15T08:01:06.039Z,8.73
2022-11-15T08:03:33.481Z,8.35
2022-11-15T08:06:00.446Z,8.27
2022-11-15T08:08:27.100Z,6.72
2022-11-15T08:10:53.707Z,6.72
2022-11-15T08:13:20.736Z,7.70
2022-11-15T08:15:47.485Z,6.82
2022-11-15T08:18:16.331Z,7.32
2022-11-15T08:20:43.759Z,8.88
2022-11-15T08:23:12.503Z,20.98
2022-11-15T08:25:39.398Z,8.85
2022-11-15T08:28:08.120Z,10.80
2022-11-15T08:30:43.236Z,8.10
2022-11-15T08:33:14.459Z,6.68
2022-11-15T08:35:42.535Z,8.13
2022-11-15T08:38:09.291Z,7.80
2022-11-15T08:40:36.524Z,9.73
2022-11-15T08:43:03.713Z,9.02
2022-11-15T08:45:35.404Z,6.85
2022-11-15T08:48:03.451Z,7.03
2022-11-15T08:50:30.303Z,7.70
2022-11-15T08:52:56.967Z,7.43
2022-11-15T08:55:25.005Z,7.43
2022-11-15T08:57:51.863Z,7.72
2022-11-15T09:00:20.944Z,6.70
2022-11-15T09:02:47.715Z,6.70
2022-11-15T09:05:14.396Z,5.88
2022-11-15T09:07:41.071Z,7.07
2022-11-15T09:10:08.155Z,7.13
2022-11-15T09:12:34.949Z,6.95
2022-11-15T09:15:01.618Z,7.93
2022-11-15T09:17:28.264Z,7.57
2022-11-15T09:19:54.862Z,7.72
2022-11-15T09:22:21.494Z,7.05
2022-11-15T09:24:48.329Z,7.13
2022-11-15T09:27:15.007Z,6.90
2022-11-15T09:29:41.786Z,8.00
2022-11-15T09:32:08.433Z,6.80
2022-11-15T09:34:35.072Z,6.05
2022-11-15T09:37:01.719Z,6.90
2022-11-15T09:39:28.400Z,6.30
2022-11-15T09:41:59.883Z,6.53
2022-11-15T09:44:58.328Z,6.53
2022-11-15T09:47:46.446Z,6.28
2022-11-15T09:50:17.000Z,6.03
2022-11-15T09:52:46.056Z,5.90
2022-11-15T09:55:16.106Z,5.88
2022-11-15T09:57:44.854Z,7.30
2022-11-15T10:03:18.069Z,5.95
2022-11-15T10:05:47.330Z,5.50
2022-11-15T10:08:41.169Z,6.03
2022-11-15T10:13:59.109Z,4.85
2022-11-15T10:16:31.773Z,5.00
2022-11-15T10:19:22.067Z,5.32
2022-11-15T10:22:13.311Z,5.22
2022-11-15T10:24:43.221Z,5.78
2022-11-15T10:27:15.378Z,6.00
2022-11-15T10:29:50.391Z,6.97
2022-11-15T10:32:21.767Z,7.40
2022-11-15T10:34:50.265Z,5.85
2022-11-15T10:37:29.068Z,6.85
2022-11-15T10:40:20.142Z,6.47
2022-11-15T10:42:46.917Z,6.45
2022-11-15T10:45:29.963Z,6.20
2022-11-15T10:48:16.552Z,6.63
2022-11-15T10:50:48.390Z,5.47
2022-11-15T10:53:25.664Z,5.70
2022-11-15T10:55:58.152Z,5.05
2022-11-15T10:58:38.339Z,4.28
2022-11-15T11:01:19.296Z,4.40
2022-11-15T11:03:59.176Z,5.90
2022-11-15T11:06:25.926Z,5.07
2022-11-15T11:08:59.032Z,5.43
2022-11-15T11:11:29.208Z,4.82
2022-11-15T11:13:55.892Z,4.32
2022-11-15T11:16:39.188Z,4.68
2022-11-15T11:19:31.715Z,5.32
2022-11-15T11:22:21.883Z,5.28
2022-11-15T11:25:03.610Z,5.60
2022-11-15T11:27:41.687Z,4.97
2022-11-15T11:30:15.612Z,5.93
2022-11-15T11:33:10.366Z,5.75
2022-11-15T11:35:46.780Z,5.10
2022-11-15T11:38:32.174Z,5.18
2022-11-15T11:41:07.637Z,4.57
2022-11-15T11:46:18.635Z,5.38
2022-11-15T11:48:48.918Z,6.78
2022-11-15T11:51:23.879Z,6.97
2022-11-15T11:53:58.535Z,8.10
2022-11-15T11:56:30.403Z,7.18
2022-11-15T11:59:07.697Z,7.57
2022-11-15T12:01:43.118Z,7.88
2022-11-15T12:04:24.773Z,8.25
2022-11-15T12:07:12.276Z,7.65
2022-11-15T12:10:03.264Z,7.50
2022-11-15T12:13:02.058Z,6.82
2022-11-15T12:15:37.010Z,6.65
2022-11-15T12:18:03.913Z,6.03
2022-11-15T12:20:35.640Z,5.00
2022-11-15T12:23:29.969Z,5.18
2022-11-15T12:26:03.799Z,4.97
2022-11-15T12:28:33.652Z,5.53
2022-11-15T12:31:05.200Z,5.20
2022-11-15T12:33:36.587Z,5.55
2022-11-15T12:36:11.218Z,5.32
2022-11-15T12:39:00.530Z,5.88
2022-11-15T12:41:34.684Z,5.30
2022-11-15T12:44:01.734Z,4.55
2022-11-15T12:46:31.328Z,5.75
2022-11-15T12:49:24.247Z,5.78
2022-11-15T12:51:51.909Z,8.35
2022-11-15T12:54:24.545Z,4.57
2022-11-15T12:57:09.019Z,5.75
2022-11-15T13:00:05.087Z,5.20
2022-11-15T13:02:40.950Z,5.32
2022-11-15T13:05:19.545Z,5.22
2022-11-15T13:07:46.139Z,6.03
2022-11-15T13:10:30.844Z,5.28
2022-11-15T13:13:04.275Z,5.03
2022-11-15T13:15:31.044Z,5.45
2022-11-15T13:17:58.221Z,5.35
2022-11-15T13:20:28.423Z,5.80
2022-11-15T13:23:16.571Z,4.28
2022-11-15T13:25:52.157Z,5.55
2022-11-15T13:28:39.858Z,4.80
2022-11-15T13:33:51.927Z,4.10
2022-11-15T13:36:32.036Z,6.38
2022-11-15T13:39:13.705Z,5.50
2022-11-15T13:41:49.578Z,4.53
2022-11-15T13:44:28.523Z,4.22
2022-11-15T13:47:08.256Z,4.57
2022-11-15T13:49:35.729Z,4.47
2022-11-15T13:52:05.386Z,14.25
2022-11-15T13:54:36.447Z,8.48
2022-11-15T13:57:05.855Z,5.55
2022-11-15T13:59:37.261Z,5.78
2022-11-15T14:02:13.271Z,7.47
2022-11-15T14:04:47.765Z,5.90
2022-11-15T14:07:22.653Z,5.70
2022-11-15T14:09:49.720Z,4.78
2022-11-15T14:12:32.915Z,5.15
2022-11-15T14:15:01.813Z,7.90
2022-11-15T14:17:31.158Z,6.82
2022-11-15T14:19:58.694Z,7.75
2022-11-15T14:22:29.897Z,6.38
2022-11-15T14:25:16.313Z,4.68
2022-11-15T14:27:45.135Z,6.50
2022-11-15T14:30:16.915Z,7.18
2022-11-15T14:32:49.010Z,5.97
2022-11-15T14:35:23.284Z,4.32
2022-11-15T14:37:50.465Z,5.13
2022-11-15T14:40:22.151Z,5.95
2022-11-15T14:42:50.313Z,8.35
2022-11-15T14:45:22.852Z,6.85
2022-11-15T14:47:49.743Z,6.78
2022-11-15T14:50:18.663Z,5.13
2022-11-15T14:52:45.669Z,4.97
2022-11-15T14:55:18.845Z,4.70
2022-11-15T14:57:46.459Z,5.28
2022-11-15T15:00:14.510Z,5.43
2022-11-15T15:02:42.443Z,17.80
2022-11-15T15:05:21.403Z,6.03
2022-11-15T15:07:48.567Z,5.70
2022-11-15T15:13:02.891Z,5.85
2022-11-15T15:15:34.803Z,8.02
2022-11-15T15:18:02.097Z,7.40
2022-11-15T15:20:29.775Z,7.35
2022-11-15T15:22:56.488Z,6.13
2022-11-15T15:25:24.409Z,8.50
2022-11-15T15:27:51.096Z,7.20
2022-11-15T15:30:18.124Z,10.60
2022-11-15T15:32:45.119Z,8.80
2022-11-15T15:35:15.606Z,7.18
2022-11-15T15:37:43.554Z,7.78
2022-11-15T15:40:21.961Z,7.68
2022-11-15T15:42:49.312Z,7.85
2022-11-15T15:45:17.081Z,9.15
2022-11-15T15:47:44.246Z,13.95
2022-11-15T15:50:28.656Z,12.40
2022-11-15T15:53:00.998Z,8.90
2022-11-15T15:55:27.846Z,8.68
2022-11-15T15:57:54.926Z,11.07
2022-11-15T16:00:24.058Z,11.40
2022-11-15T16:02:51.496Z,11.85
2022-11-15T16:05:21.439Z,13.68
2022-11-15T16:07:48.872Z,15.52
2022-11-15T16:10:26.071Z,17.92
2022-11-15T16:12:53.852Z,18.48
2022-11-15T16:15:21.337Z,9.88
2022-11-15T16:17:58.967Z,13.75
2022-11-15T16:20:45.865Z,9.40
2022-11-15T16:23:17.259Z,9.75
2022-11-15T16:25:48.940Z,7.63
2022-11-15T16:28:30.548Z,9.07
2022-11-15T16:31:10.086Z,9.50
2022-11-15T16:33:37.559Z,10.30
2022-11-15T16:36:05.819Z,11.73
2022-11-15T16:38:32.959Z,8.32
2022-11-15T16:40:59.789Z,9.35
2022-11-15T16:43:26.475Z,11.98
2022-11-15T16:45:53.144Z,9.90
2022-11-15T16:48:27.612Z,11.27
2022-11-15T16:50:58.746Z,11.98
2022-11-15T16:53:26.519Z,10.80
2022-11-15T16:55:53.350Z,10.68
2022-11-15T16:58:19.999Z,11.90
2022-11-15T17:00:51.414Z,8.98
2022-11-15T17:03:18.109Z,8.02
2022-11-15T17:05:44.774Z,7.68
2022-11-15T17:08:11.386Z,7.78
2022-11-15T17:10:41.632Z,8.93
2022-11-15T17:13:14.648Z,9.25
2022-11-15T17:15:41.344Z,9.63
2022-11-15T17:18:11.479Z,9.20
2022-11-15T17:20:38.169Z,9.95
2022-11-15T17:23:04.855Z,29.05
2022-11-15T17:25:31.453Z,15.18
2022-11-15T17:27:58.071Z,9.55
2022-11-15T17:30:24.695Z,9.25
2022-11-15T17:32:51.351Z,12.30
2022-11-15T17:35:18.128Z,34.45
2022-11-15T17:37:45.437Z,12.13
2022-11-15T17:40:12.298Z,17.52
2022-11-15T17:42:41.158Z,8.93
2022-11-15T17:45:10.371Z,14.30
2022-11-15T17:47:37.516Z,17.80
2022-11-15T17:50:04.453Z,22.00
2022-11-15T17:52:31.246Z,7.47
2022-11-15T17:54:57.907Z,10.50
2022-11-15T17:57:24.562Z,12.20
2022-11-15T17:59:51.529Z,8.35
2022-11-15T18:02:18.168Z,11.43
2022-11-15T18:04:45.311Z,11.18
2022-11-15T18:07:14.039Z,9.00
2022-11-15T18:09:43.911Z,8.38
2022-11-15T18:12:11.807Z,16.23
2022-11-15T18:14:38.572Z,10.93
2022-11-15T18:17:05.269Z,10.10
2022-11-15T18:19:31.932Z,16.27
2022-11-15T18:22:01.921Z,13.45
2022-11-15T18:24:34.713Z,22.15
2022-11-15T18:27:02.923Z,13.43
2022-11-15T18:29:29.536Z,14.30
2022-11-15T18:31:56.422Z,19.00
2022-11-15T18:34:24.324Z,14.52
2022-11-15T18:36:52.707Z,19.58
2022-11-15T18:39:19.464Z,20.73
2022-11-15T18:41:46.944Z,14.10
2022-11-15T18:44:13.881Z,16.70
2022-11-15T18:46:41.206Z,13.93
2022-11-15T18:49:10.363Z,14.70
2022-11-15T18:51:37.920Z,14.07
2022-11-15T18:54:04.727Z,14.30
2022-11-15T18:56:32.112Z,17.58
2022-11-15T18:59:00.970Z,25.17
2022-11-15T19:01:30.663Z,26.55
2022-11-15T19:03:58.459Z,27.27
2022-11-15T19:06:27.482Z,29.15
2022-11-15T19:08:56.409Z,27.13
2022-11-15T19:11:35.853Z,27.48
2022-11-15T19:14:04.732Z,21.90
2022-11-15T19:16:33.616Z,20.95
2022-11-15T19:19:02.618Z,19.83
2022-11-15T19:21:31.065Z,17.25
2022-11-15T19:23:58.683Z,17.60
2022-11-15T19:26:25.994Z,20.88
2022-11-15T19:28:57.515Z,19.65
2022-11-15T19:31:25.370Z,18.52
2022-11-15T19:33:52.837Z,19.80
2022-11-15T19:36:23.332Z,21.40
2022-11-15T19:38:50.195Z,23.58
2022-11-15T19:41:18.608Z,24.83
2022-11-15T19:43:48.013Z,26.58
2022-11-15T19:46:15.480Z,26.77
2022-11-15T19:48:42.186Z,28.80
2022-11-15T19:51:15.708Z,22.38
2022-11-15T19:53:43.052Z,24.45
2022-11-15T19:56:16.217Z,20.85
2022-11-15T19:58:43.425Z,25.15
2022-11-15T20:01:45.265Z,23.55
2022-11-15T20:04:11.960Z,21.27
2022-11-15T20:06:41.331Z,21.63
2022-11-15T20:09:12.087Z,21.38
2022-11-15T20:11:39.484Z,21.35
2022-11-15T20:14:11.604Z,20.33
2022-11-15T20:16:38.730Z,25.38
2022-11-15T20:19:05.506Z,20.00
2022-11-15T20:21:32.151Z,48.80
2022-11-15T20:23:58.954Z,58.67
2022-11-15T20:26:25.690Z,36.08
2022-11-15T20:28:52.357Z,46.65
2022-11-15T20:31:19.382Z,30.65
2022-11-15T20:33:46.077Z,27.20
2022-11-15T20:36:14.415Z,19.48
2022-11-15T20:38:41.368Z,21.95
2022-11-15T20:41:08.320Z,23.05
2022-11-15T20:43:35.192Z,28.13
2022-11-15T20:46:01.874Z,23.65
2022-11-15T20:48:28.575Z,26.95
2022-11-15T20:51:10.922Z,24.85
2022-11-15T20:53:37.579Z,23.40
2022-11-15T20:56:07.746Z,25.42
2022-11-15T20:58:35.897Z,22.88
2022-11-15T21:01:04.387Z,31.05
2022-11-15T21:03:31.228Z,24.40
2022-11-15T21:05:57.997Z,24.77
2022-11-15T21:08:24.762Z,20.85
2022-11-15T21:11:11.135Z,20.15
2022-11-15T21:13:38.875Z,19.45
2022-11-15T21:16:06.019Z,21.35
2022-11-15T21:18:33.273Z,20.83
2022-11-15T21:21:07.469Z,19.05
2022-11-15T21:23:34.121Z,19.10
2022-11-15T21:26:00.778Z,19.20
2022-11-15T21:28:27.386Z,18.60
2022-11-15T21:30:59.999Z,19.00
2022-11-15T21:33:29.835Z,22.98
2022-11-15T21:35:57.603Z,30.25
2022-11-15T21:38:24.821Z,34.78
2022-11-15T21:40:52.504Z,30.75
2022-11-15T21:43:19.967Z,34.65
2022-11-15T21:46:02.924Z,37.72
2022-11-15T21:48:32.161Z,34.95
2022-11-15T21:51:00.030Z,34.45
2022-11-15T21:53:27.958Z,32.38
2022-11-15T21:55:54.922Z,36.53
2022-11-15T21:58:22.295Z,40.42
2022-11-15T22:01:08.720Z,36.75
2022-11-15T22:03:35.797Z,43.13
2022-11-15T22:06:02.451Z,41.78
2022-11-15T22:08:29.327Z,53.35
2022-11-15T22:10:56.963Z,51.25
2022-11-15T22:13:24.698Z,49.72
2022-11-15T22:15:53.502Z,53.22
2022-11-15T22:18:31.833Z,50.85
2022-11-15T22:21:04.233Z,49.08
2022-11-15T22:23:32.878Z,49.05
2022-11-15T22:26:00.086Z,49.25
2022-11-15T22:28:26.809Z,48.67
2022-11-15T22:30:54.758Z,44.05
2022-11-15T22:33:23.956Z,39.63
2022-11-15T22:35:50.766Z,34.42
2022-11-15T22:38:17.943Z,35.45
2022-11-15T22:40:44.631Z,34.58
2022-11-15T22:43:13.284Z,18.25
2022-11-15T22:45:57.063Z,40.80
2022-11-15T22:48:31.960Z,38.65
2022-11-15T22:50:59.293Z,33.42
2022-11-15T22:53:26.641Z,39.67
2022-11-15T22:55:56.099Z,31.88
2022-11-15T22:58:24.398Z,30.83
2022-11-15T23:00:52.511Z,23.42
2022-11-15T23:03:20.159Z,23.15
2022-11-15T23:05:47.463Z,21.60
2022-11-15T23:08:14.449Z,21.15
2022-11-15T23:10:59.679Z,18.65
2022-11-15T23:13:28.218Z,17.83
2022-11-15T23:16:21.461Z,17.13
2022-11-15T23:18:49.342Z,18.35
2022-11-15T23:21:46.239Z,16.70
2022-11-15T23:24:13.959Z,16.83
2022-11-15T23:26:41.402Z,17.65
2022-11-15T23:29:09.635Z,18.00
2022-11-15T23:32:01.495Z,19.30
2022-11-15T23:34:30.141Z,18.83
2022-11-15T23:36:56.817Z,19.35
2022-11-15T23:39:23.748Z,35.65
2022-11-15T23:41:50.379Z,23.23
2022-11-15T23:44:17.031Z,25.40
2022-11-15T23:46:43.727Z,24.48
2022-11-15T23:49:10.420Z,21.30
2022-11-15T23:51:37.213Z,21.50
2022-11-15T23:54:03.902Z,20.98
2022-11-15T23:56:30.668Z,23.83
2022-11-15T23:58:57.311Z,21.88
